createdAt,value
2018-06-20T00:00:33.658Z,1018.40
2018-06-20T00:01:33.677Z,1018.38
2018-06-20T00:02:33.692Z,1018.39
2018-06-20T00:03:33.762Z,1018.38
2018-06-20T00:04:33.751Z,1018.33
2018-06-20T00:05:33.767Z,1018.37
2018-06-20T00:06:33.762Z,1018.32
2018-06-20T00:07:33.781Z,1018.33
2018-06-20T00:08:33.797Z,1018.32
2018-06-20T00:09:33.814Z,1018.33
2018-06-20T00:10:33.832Z,1018.29
2018-06-20T00:11:33.848Z,1018.31
2018-06-20T00:12:33.886Z,1018.28
2018-06-20T00:13:33.884Z,1018.30
2018-06-20T00:14:33.911Z,1018.27
2018-06-20T00:15:33.918Z,1018.27
2018-06-20T00:16:33.935Z,1018.25
2018-06-20T00:17:33.954Z,1018.24
2018-06-20T00:18:33.971Z,1018.16
2018-06-20T00:19:34.013Z,1018.22
2018-06-20T00:20:34.002Z,1018.22
2018-06-20T00:21:34.020Z,1018.20
2018-06-20T00:22:34.041Z,1018.17
2018-06-20T00:23:34.055Z,1018.20
2018-06-20T00:24:34.072Z,1018.16
2018-06-20T00:25:34.089Z,1018.13
2018-06-20T00:26:34.107Z,1018.14
2018-06-20T00:27:34.125Z,1018.12
2018-06-20T00:28:34.147Z,1018.14
2018-06-20T00:29:34.164Z,1018.11
2018-06-20T00:30:34.185Z,1018.10
2018-06-20T00:31:34.193Z,1018.09
2018-06-20T00:32:34.210Z,1018.10
2018-06-20T00:33:34.228Z,1018.08
2018-06-20T00:34:34.255Z,1018.08
2018-06-20T00:35:34.303Z,1018.12
2018-06-20T00:36:34.292Z,1018.10
2018-06-20T00:37:34.296Z,1018.10
2018-06-20T00:38:34.312Z,1018.07
2018-06-20T00:39:34.343Z,1018.04
2018-06-20T00:40:34.348Z,1018.04
2018-06-20T00:41:34.367Z,1018.05
2018-06-20T00:42:34.388Z,1018.06
2018-06-20T00:43:34.404Z,1017.99
2018-06-20T00:44:34.416Z,1018.06
2018-06-20T00:45:34.435Z,1018.04
2018-06-20T00:46:34.450Z,1018.02
2018-06-20T00:47:34.469Z,1018.07
2018-06-20T00:48:34.493Z,1018.06
2018-06-20T00:49:34.505Z,1018.06
2018-06-20T00:50:34.520Z,1018.08
2018-06-20T00:51:34.538Z,1018.03
2018-06-20T00:52:34.558Z,1018.00
2018-06-20T00:53:34.571Z,1017.98
2018-06-20T00:54:34.588Z,1017.98
2018-06-20T00:55:34.619Z,1017.97
2018-06-20T00:56:34.624Z,1017.96
2018-06-20T00:57:34.641Z,1017.97
2018-06-20T00:58:34.669Z,1017.97
2018-06-20T00:59:34.723Z,1017.96
2018-06-20T01:00:34.734Z,1018.00
2018-06-20T01:01:34.711Z,1017.94
2018-06-20T01:02:34.726Z,1017.96
2018-06-20T01:03:34.750Z,1017.95
2018-06-20T01:04:34.760Z,1017.95
2018-06-20T01:05:34.777Z,1017.93
2018-06-20T01:06:34.794Z,1017.89
2018-06-20T01:07:34.812Z,1017.87
2018-06-20T01:08:35.664Z,1017.90
2018-06-20T01:09:34.848Z,1017.92
2018-06-20T01:10:34.864Z,1017.90
2018-06-20T01:11:34.904Z,1017.90
2018-06-20T01:12:34.901Z,1017.86
2018-06-20T01:13:34.917Z,1017.84
2018-06-20T01:14:34.944Z,1017.84
2018-06-20T01:15:34.989Z,1017.83
2018-06-20T01:16:34.966Z,1017.82
2018-06-20T01:17:34.985Z,1017.81
2018-06-20T01:18:35.084Z,1017.83
2018-06-20T01:19:35.726Z,1017.82
2018-06-20T01:20:35.036Z,1017.83
2018-06-20T01:21:35.054Z,1017.85
2018-06-20T01:22:35.070Z,1017.84
2018-06-20T01:23:35.086Z,1017.79
2018-06-20T01:24:35.107Z,1017.76
2018-06-20T01:25:35.120Z,1017.79
2018-06-20T01:26:35.139Z,1017.77
2018-06-20T01:27:35.171Z,1017.81
2018-06-20T01:28:35.169Z,1017.79
2018-06-20T01:29:35.181Z,1017.78
2018-06-20T01:30:35.199Z,1017.78
2018-06-20T01:31:35.216Z,1017.80
2018-06-20T01:32:35.336Z,1017.80
2018-06-20T01:33:35.272Z,1017.81
2018-06-20T01:34:35.429Z,1017.84
2018-06-20T01:35:35.285Z,1017.81
2018-06-20T01:36:35.301Z,1017.80
2018-06-20T01:37:35.318Z,1017.80
2018-06-20T01:38:35.336Z,1017.81
2018-06-20T01:39:35.355Z,1017.81
2018-06-20T01:40:35.674Z,1017.83
2018-06-20T01:41:35.388Z,1017.81
2018-06-20T01:42:35.405Z,1017.86
2018-06-20T01:43:35.422Z,1017.82
2018-06-20T01:44:35.441Z,1017.82
2018-06-20T01:45:35.477Z,1017.84
2018-06-20T01:46:35.478Z,1017.84
2018-06-20T01:47:35.491Z,1017.80
2018-06-20T01:48:35.687Z,1017.82
2018-06-20T01:49:35.524Z,1017.85
2018-06-20T01:50:35.543Z,1017.82
2018-06-20T01:51:35.654Z,1017.82
2018-06-20T01:52:35.575Z,1017.79
2018-06-20T01:53:35.592Z,1017.78
2018-06-20T01:54:35.609Z,1017.77
2018-06-20T01:55:35.681Z,1017.80
2018-06-20T01:56:35.645Z,1017.80
2018-06-20T01:57:35.668Z,1017.77
2018-06-20T01:58:35.680Z,1017.77
2018-06-20T01:59:35.698Z,1017.82
2018-06-20T02:00:35.721Z,1017.78
2018-06-20T02:01:35.729Z,1017.78
2018-06-20T02:02:35.746Z,1017.80
2018-06-20T02:03:35.785Z,1017.77
2018-06-20T02:04:36.086Z,1017.76
2018-06-20T02:05:35.803Z,1017.80
2018-06-20T02:06:35.817Z,1017.77
2018-06-20T02:07:35.926Z,1017.76
2018-06-20T02:08:35.889Z,1017.77
2018-06-20T02:09:35.880Z,1017.71
2018-06-20T02:10:35.885Z,1017.73
2018-06-20T02:11:35.901Z,1017.74
2018-06-20T02:12:35.927Z,1017.74
2018-06-20T02:13:35.935Z,1017.72
2018-06-20T02:14:35.952Z,1017.73
2018-06-20T02:15:36.038Z,1017.71
2018-06-20T02:16:35.989Z,1017.73
2018-06-20T02:17:36.003Z,1017.74
2018-06-20T02:18:36.062Z,1017.76
2018-06-20T02:19:36.041Z,1017.71
2018-06-20T02:20:36.054Z,1017.69
2018-06-20T02:21:36.071Z,1017.64
2018-06-20T02:22:36.171Z,1017.64
2018-06-20T02:23:36.110Z,1017.60
2018-06-20T02:24:36.122Z,1017.60
2018-06-20T02:25:36.141Z,1017.60
2018-06-20T02:26:36.157Z,1017.60
2018-06-20T02:27:36.180Z,1017.61
2018-06-20T02:28:36.194Z,1017.61
2018-06-20T02:29:36.208Z,1017.61
2018-06-20T02:30:36.227Z,1017.63
2018-06-20T02:31:36.250Z,1017.61
2018-06-20T02:32:36.275Z,1017.59
2018-06-20T02:33:36.276Z,1017.58
2018-06-20T02:34:36.295Z,1017.57
2018-06-20T02:35:36.329Z,1017.58
2018-06-20T02:36:36.355Z,1017.54
2018-06-20T02:37:36.353Z,1017.52
2018-06-20T02:38:36.361Z,1017.54
2018-06-20T02:39:36.380Z,1017.52
2018-06-20T02:40:36.403Z,1017.50
2018-06-20T02:41:36.423Z,1017.51
2018-06-20T02:42:36.436Z,1017.51
2018-06-20T02:43:36.452Z,1017.48
2018-06-20T02:44:36.473Z,1017.47
2018-06-20T02:45:36.491Z,1017.43
2018-06-20T02:46:36.499Z,1017.45
2018-06-20T02:47:36.515Z,1017.44
2018-06-20T02:48:36.534Z,1017.45
2018-06-20T02:49:36.548Z,1017.43
2018-06-20T02:50:36.571Z,1017.43
2018-06-20T02:51:36.633Z,1017.44
2018-06-20T02:52:36.718Z,1017.48
2018-06-20T02:53:36.624Z,1017.42
2018-06-20T02:54:36.694Z,1017.44
2018-06-20T02:55:36.710Z,1017.43
2018-06-20T02:56:36.802Z,1017.43
2018-06-20T02:57:36.712Z,1017.42
2018-06-20T02:58:36.709Z,1017.47
2018-06-20T02:59:36.721Z,1017.44
2018-06-20T03:00:36.741Z,1017.44
2018-06-20T03:01:36.755Z,1017.44
2018-06-20T03:02:36.773Z,1017.45
2018-06-20T03:03:36.793Z,1017.42
2018-06-20T03:04:36.809Z,1017.41
2018-06-20T03:05:36.822Z,1017.38
2018-06-20T03:06:36.843Z,1017.38
2018-06-20T03:07:36.856Z,1017.40
2018-06-20T03:08:36.879Z,1017.37
2018-06-20T03:09:36.889Z,1017.34
2018-06-20T03:10:36.906Z,1017.35
2018-06-20T03:11:36.924Z,1017.37
2018-06-20T03:12:36.942Z,1017.37
2018-06-20T03:13:36.956Z,1017.38
2018-06-20T03:14:36.974Z,1017.38
2018-06-20T03:15:36.993Z,1017.39
2018-06-20T03:16:37.020Z,1017.35
2018-06-20T03:17:37.029Z,1017.36
2018-06-20T03:18:37.043Z,1017.37
2018-06-20T03:19:37.066Z,1017.34
2018-06-20T03:20:37.075Z,1017.39
2018-06-20T03:21:37.092Z,1017.38
2018-06-20T03:22:37.123Z,1017.36
2018-06-20T03:23:37.134Z,1017.35
2018-06-20T03:24:37.143Z,1017.36
2018-06-20T03:25:37.171Z,1017.33
2018-06-20T03:26:37.188Z,1017.37
2018-06-20T03:27:37.196Z,1017.38
2018-06-20T03:28:37.231Z,1017.36
2018-06-20T03:29:37.229Z,1017.32
2018-06-20T03:30:37.252Z,1017.34
2018-06-20T03:31:37.264Z,1017.36
2018-06-20T03:32:37.280Z,1017.31
2018-06-20T03:33:37.303Z,1017.29
2018-06-20T03:34:37.317Z,1017.27
2018-06-20T03:35:37.353Z,1017.25
2018-06-20T03:36:37.349Z,1017.23
2018-06-20T03:37:37.365Z,1017.22
2018-06-20T03:38:37.384Z,1017.22
2018-06-20T03:39:37.601Z,1017.25
2018-06-20T03:40:37.417Z,1017.23
2018-06-20T03:41:37.435Z,1017.20
2018-06-20T03:42:37.451Z,1017.20
2018-06-20T03:43:37.468Z,1017.19
2018-06-20T03:44:37.488Z,1017.22
2018-06-20T03:45:37.578Z,1017.19
2018-06-20T03:46:37.519Z,1017.20
2018-06-20T03:47:37.539Z,1017.18
2018-06-20T03:48:37.553Z,1017.19
2018-06-20T03:49:37.568Z,1017.20
2018-06-20T03:50:37.612Z,1017.22
2018-06-20T03:51:37.607Z,1017.25
2018-06-20T03:52:37.624Z,1017.26
2018-06-20T03:53:37.655Z,1017.27
2018-06-20T03:54:37.687Z,1017.25
2018-06-20T03:55:37.672Z,1017.25
2018-06-20T03:56:37.690Z,1017.24
2018-06-20T03:57:37.709Z,1017.23
2018-06-20T03:58:37.740Z,1017.22
2018-06-20T03:59:37.740Z,1017.26
2018-06-20T04:00:37.757Z,1017.25
2018-06-20T04:01:37.897Z,1017.22
2018-06-20T04:02:37.793Z,1017.20
2018-06-20T04:03:37.936Z,1017.22
2018-06-20T04:04:37.826Z,1017.15
2018-06-20T04:05:37.946Z,1017.17
2018-06-20T04:06:37.862Z,1017.18
2018-06-20T04:07:37.876Z,1017.21
2018-06-20T04:08:37.893Z,1017.21
2018-06-20T04:09:37.920Z,1017.20
2018-06-20T04:10:37.931Z,1017.20
2018-06-20T04:11:37.947Z,1017.24
2018-06-20T04:12:37.967Z,1017.24
2018-06-20T04:13:37.981Z,1017.23
2018-06-20T04:14:37.996Z,1017.25
2018-06-20T04:15:38.012Z,1017.23
2018-06-20T04:16:38.028Z,1017.24
2018-06-20T04:18:38.085Z,1017.19
2018-06-20T04:19:38.092Z,1017.23
2018-06-20T04:20:38.119Z,1017.23
2018-06-20T04:21:38.113Z,1017.19
2018-06-20T04:22:38.160Z,1017.18
2018-06-20T04:23:38.149Z,1017.19
2018-06-20T04:24:38.176Z,1017.22
2018-06-20T04:25:38.242Z,1017.21
2018-06-20T04:26:38.199Z,1017.19
2018-06-20T04:27:38.218Z,1017.20
2018-06-20T04:28:38.235Z,1017.22
2018-06-20T04:29:38.249Z,1017.18
2018-06-20T04:30:38.289Z,1017.13
2018-06-20T04:31:38.294Z,1017.12
2018-06-20T04:32:38.300Z,1017.12
2018-06-20T04:33:38.332Z,1017.10
2018-06-20T04:34:38.474Z,1017.12
2018-06-20T04:36:38.507Z,1017.12
2018-06-20T04:37:38.871Z,1017.09
2018-06-20T04:38:38.411Z,1017.08
2018-06-20T04:39:38.422Z,1017.08
2018-06-20T04:40:38.465Z,1017.06
2018-06-20T04:41:38.471Z,1017.06
2018-06-20T04:42:38.476Z,1017.06
2018-06-20T04:43:38.494Z,1017.09
2018-06-20T04:44:38.513Z,1017.07
2018-06-20T04:45:38.527Z,1017.05
2018-06-20T04:46:38.539Z,1017.09
2018-06-20T04:47:38.559Z,1017.11
2018-06-20T04:48:38.580Z,1017.09
2018-06-20T04:49:38.592Z,1017.12
2018-06-20T04:50:38.608Z,1017.11
2018-06-20T04:51:38.628Z,1017.11
2018-06-20T04:52:38.646Z,1017.11
2018-06-20T04:53:38.660Z,1017.05
2018-06-20T04:54:38.677Z,1017.05
2018-06-20T04:55:38.714Z,1017.03
2018-06-20T04:56:38.712Z,1017.04
2018-06-20T04:57:38.756Z,1017.06
2018-06-20T04:58:38.753Z,1017.03
2018-06-20T04:59:38.765Z,1017.03
2018-06-20T05:00:38.780Z,1017.03
2018-06-20T05:01:38.801Z,1017.00
2018-06-20T05:02:38.821Z,1017.02
2018-06-20T05:03:38.938Z,1017.02
2018-06-20T05:04:39.411Z,1017.02
2018-06-20T05:05:38.912Z,1017.02
2018-06-20T05:06:39.306Z,1017.03
2018-06-20T05:07:38.904Z,1017.00
2018-06-20T05:08:38.962Z,1016.91
2018-06-20T05:09:38.953Z,1016.97
2018-06-20T05:10:38.957Z,1016.99
2018-06-20T05:11:38.992Z,1016.98
2018-06-20T05:12:38.988Z,1016.97
2018-06-20T05:13:39.010Z,1016.93
2018-06-20T05:14:39.023Z,1017.02
2018-06-20T05:15:39.047Z,1016.94
2018-06-20T05:16:39.500Z,1016.98
2018-06-20T05:17:39.088Z,1016.93
2018-06-20T05:18:39.125Z,1016.97
2018-06-20T05:19:39.124Z,1016.93
2018-06-20T05:20:39.135Z,1016.93
2018-06-20T05:21:39.153Z,1016.92
2018-06-20T05:22:39.234Z,1016.93
2018-06-20T05:23:39.182Z,1016.90
2018-06-20T05:24:39.194Z,1016.89
2018-06-20T05:25:39.251Z,1016.89
2018-06-20T05:26:39.234Z,1016.87
2018-06-20T05:27:39.284Z,1016.88
2018-06-20T05:28:39.264Z,1016.89
2018-06-20T05:29:39.332Z,1016.90
2018-06-20T05:30:39.323Z,1016.92
2018-06-20T05:31:39.337Z,1016.89
2018-06-20T05:32:39.335Z,1016.87
2018-06-20T05:33:39.355Z,1016.85
2018-06-20T05:34:39.371Z,1016.88
2018-06-20T05:35:39.390Z,1016.88
2018-06-20T05:36:39.407Z,1016.88
2018-06-20T05:37:39.430Z,1016.88
2018-06-20T05:38:39.498Z,1016.98
2018-06-20T05:39:39.466Z,1016.92
2018-06-20T05:40:39.481Z,1016.94
2018-06-20T05:41:39.495Z,1016.94
2018-06-20T05:42:39.514Z,1016.93
2018-06-20T05:43:39.525Z,1016.93
2018-06-20T05:44:39.545Z,1016.93
2018-06-20T05:45:39.575Z,1016.88
2018-06-20T05:46:39.583Z,1016.90
2018-06-20T05:47:39.604Z,1016.92
2018-06-20T05:48:39.618Z,1016.97
2018-06-20T05:49:39.628Z,1016.94
2018-06-20T05:50:39.679Z,1016.89
2018-06-20T05:51:39.677Z,1016.92
2018-06-20T05:52:39.708Z,1016.91
2018-06-20T05:53:39.747Z,1016.88
2018-06-20T05:54:40.178Z,1016.92
2018-06-20T05:55:39.746Z,1016.90
2018-06-20T05:56:39.752Z,1016.94
2018-06-20T05:57:39.770Z,1017.00
2018-06-20T05:58:39.853Z,1017.01
2018-06-20T05:59:39.811Z,1017.00
2018-06-20T06:00:39.827Z,1017.00
2018-06-20T06:01:39.841Z,1017.02
2018-06-20T06:02:39.867Z,1016.99
2018-06-20T06:03:39.882Z,1017.01
2018-06-20T06:04:39.915Z,1016.97
2018-06-20T06:05:39.921Z,1017.01
2018-06-20T06:06:39.933Z,1017.01
2018-06-20T06:07:39.960Z,1016.97
2018-06-20T06:08:39.966Z,1016.99
2018-06-20T06:09:40.038Z,1017.04
2018-06-20T06:10:40.011Z,1017.00
2018-06-20T06:11:40.022Z,1017.03
2018-06-20T06:12:40.040Z,1016.97
2018-06-20T06:13:40.070Z,1016.98
2018-06-20T06:14:40.077Z,1016.99
2018-06-20T06:15:40.096Z,1017.02
2018-06-20T06:16:40.134Z,1017.03
2018-06-20T06:17:40.151Z,1017.04
2018-06-20T06:18:40.151Z,1017.01
2018-06-20T06:19:40.175Z,1017.02
2018-06-20T06:20:40.216Z,1017.01
2018-06-20T06:21:40.228Z,1017.02
2018-06-20T06:22:40.217Z,1017.07
2018-06-20T06:23:40.248Z,1017.06
2018-06-20T06:24:40.270Z,1017.07
2018-06-20T06:25:40.283Z,1017.04
2018-06-20T06:26:40.294Z,1017.05
2018-06-20T06:27:40.321Z,1017.04
2018-06-20T06:28:40.325Z,1017.08
2018-06-20T06:29:40.348Z,1017.08
2018-06-20T06:30:40.430Z,1017.05
2018-06-20T06:31:40.432Z,1017.06
2018-06-20T06:33:40.422Z,1017.08
2018-06-20T06:34:40.535Z,1017.08
2018-06-20T06:35:40.459Z,1017.04
2018-06-20T06:36:40.471Z,1017.03
2018-06-20T06:37:40.543Z,1017.03
2018-06-20T06:38:40.512Z,1017.03
2018-06-20T06:39:40.544Z,1017.03
2018-06-20T06:40:40.630Z,1017.04
2018-06-20T06:41:40.561Z,1017.08
2018-06-20T06:42:40.590Z,1017.08
2018-06-20T06:43:40.595Z,1017.05
2018-06-20T06:44:40.621Z,1017.09
2018-06-20T06:45:40.631Z,1017.08
2018-06-20T06:46:40.653Z,1017.11
2018-06-20T06:47:40.673Z,1017.09
2018-06-20T06:48:40.694Z,1017.16
2018-06-20T06:49:40.746Z,1017.10
2018-06-20T06:50:40.731Z,1017.11
2018-06-20T06:51:40.745Z,1017.12
2018-06-20T06:52:40.790Z,1017.11
2018-06-20T06:53:40.892Z,1017.16
2018-06-20T06:54:40.830Z,1017.14
2018-06-20T06:55:40.819Z,1017.10
2018-06-20T06:56:40.885Z,1017.11
2018-06-20T06:57:41.007Z,1017.11
2018-06-20T06:58:40.872Z,1017.10
2018-06-20T06:59:41.432Z,1017.11
2018-06-20T07:00:40.902Z,1017.09
2018-06-20T07:01:40.918Z,1017.09
2018-06-20T07:02:40.942Z,1017.08
2018-06-20T07:03:40.958Z,1017.09
2018-06-20T07:04:41.677Z,1017.12
2018-06-20T07:05:41.021Z,1017.14
2018-06-20T07:06:41.013Z,1017.16
2018-06-20T07:07:41.054Z,1017.12
2018-06-20T07:08:41.053Z,1017.10
2018-06-20T07:09:41.065Z,1017.09
2018-06-20T07:10:41.085Z,1017.07
2018-06-20T07:11:41.106Z,1017.05
2018-06-20T07:12:41.122Z,1017.03
2018-06-20T07:13:41.150Z,1017.09
2018-06-20T07:14:41.167Z,1017.08
2018-06-20T07:15:41.174Z,1017.06
2018-06-20T07:16:41.250Z,1017.09
2018-06-20T07:17:41.676Z,1017.08
2018-06-20T07:18:41.226Z,1017.07
2018-06-20T07:19:41.246Z,1017.06
2018-06-20T07:20:41.265Z,1017.06
2018-06-20T07:21:41.283Z,1017.10
2018-06-20T07:22:41.304Z,1017.10
2018-06-20T07:23:41.768Z,1017.11
2018-06-20T07:24:41.340Z,1017.09
2018-06-20T07:25:41.372Z,1017.06
2018-06-20T07:26:41.385Z,1017.09
2018-06-20T07:27:41.396Z,1017.08
2018-06-20T07:28:41.411Z,1017.09
2018-06-20T07:29:41.425Z,1017.11
2018-06-20T07:30:41.508Z,1017.08
2018-06-20T07:31:41.468Z,1017.06
2018-06-20T07:32:41.484Z,1017.03
2018-06-20T07:33:41.499Z,1017.01
2018-06-20T07:34:41.520Z,1017.01
2018-06-20T07:35:41.804Z,1017.06
2018-06-20T07:36:41.559Z,1017.02
2018-06-20T07:37:41.608Z,1017.00
2018-06-20T07:38:41.612Z,1016.99
2018-06-20T07:39:41.614Z,1016.99
2018-06-20T07:40:41.628Z,1016.99
2018-06-20T07:41:41.645Z,1016.99
2018-06-20T07:42:41.670Z,1016.99
2018-06-20T07:43:42.119Z,1017.04
2018-06-20T07:44:41.703Z,1016.98
2018-06-20T07:45:41.720Z,1016.96
2018-06-20T07:46:41.780Z,1016.97
2018-06-20T07:47:41.758Z,1016.94
2018-06-20T07:48:41.775Z,1016.95
2018-06-20T07:49:41.793Z,1016.94
2018-06-20T07:50:41.850Z,1016.91
2018-06-20T07:51:41.836Z,1016.94
2018-06-20T07:52:41.893Z,1016.95
2018-06-20T07:53:41.883Z,1016.93
2018-06-20T07:54:41.906Z,1016.99
2018-06-20T07:55:43.137Z,1017.02
2018-06-20T07:57:42.160Z,1016.99
2018-06-20T07:58:41.957Z,1016.99
2018-06-20T07:59:41.975Z,1016.97
2018-06-20T08:00:42.000Z,1016.97
2018-06-20T08:01:42.024Z,1016.91
2018-06-20T08:02:42.041Z,1016.86
2018-06-20T08:03:42.051Z,1016.87
2018-06-20T08:04:42.072Z,1016.83
2018-06-20T08:05:42.234Z,1016.86
2018-06-20T08:06:42.105Z,1016.84
2018-06-20T08:07:42.134Z,1016.85
2018-06-20T08:08:42.539Z,1016.87
2018-06-20T08:10:42.663Z,1016.84
2018-06-20T08:11:42.213Z,1016.87
2018-06-20T08:12:42.220Z,1016.83
2018-06-20T08:13:42.418Z,1016.86
2018-06-20T08:14:42.253Z,1016.88
2018-06-20T08:15:42.273Z,1016.88
2018-06-20T08:16:42.291Z,1016.90
2018-06-20T08:17:42.360Z,1016.88
2018-06-20T08:18:42.333Z,1016.95
2018-06-20T08:19:42.357Z,1016.92
2018-06-20T08:20:42.383Z,1016.93
2018-06-20T08:21:42.394Z,1016.91
2018-06-20T08:22:42.433Z,1016.93
2018-06-20T08:23:42.433Z,1016.98
2018-06-20T08:24:42.470Z,1016.93
2018-06-20T08:25:42.546Z,1016.92
2018-06-20T08:26:42.484Z,1016.90
2018-06-20T08:27:42.525Z,1016.90
2018-06-20T08:28:42.517Z,1016.90
2018-06-20T08:30:43.367Z,1016.87
2018-06-20T08:31:42.676Z,1016.88
2018-06-20T08:32:42.593Z,1016.90
2018-06-20T08:33:42.624Z,1016.84
2018-06-20T08:34:42.627Z,1016.84
2018-06-20T08:35:42.650Z,1016.87
2018-06-20T08:36:42.669Z,1016.84
2018-06-20T08:37:42.683Z,1016.82
2018-06-20T08:38:42.707Z,1016.84
2018-06-20T08:39:42.724Z,1016.83
2018-06-20T08:40:42.742Z,1016.83
2018-06-20T08:41:42.759Z,1016.85
2018-06-20T08:42:42.780Z,1016.82
2018-06-20T08:43:42.821Z,1016.84
2018-06-20T08:44:42.817Z,1016.83
2018-06-20T08:45:42.841Z,1016.83
2018-06-20T08:46:42.887Z,1016.84
2018-06-20T08:47:44.273Z,1016.78
2018-06-20T08:48:42.909Z,1016.77
2018-06-20T08:49:42.922Z,1016.81
2018-06-20T08:50:43.244Z,1016.87
2018-06-20T08:51:42.951Z,1016.84
2018-06-20T08:52:42.977Z,1016.82
2018-06-20T08:53:42.987Z,1016.80
2018-06-20T08:54:43.055Z,1016.83
2018-06-20T08:55:43.027Z,1016.81
2018-06-20T08:56:43.047Z,1016.74
2018-06-20T08:57:43.075Z,1016.83
2018-06-20T08:58:43.255Z,1016.79
2018-06-20T08:59:43.107Z,1016.73
2018-06-20T09:00:43.171Z,1016.68
2018-06-20T09:02:43.191Z,1016.70
2018-06-20T09:03:44.088Z,1016.67
2018-06-20T09:04:43.366Z,1016.66
2018-06-20T09:05:43.222Z,1016.64
2018-06-20T09:06:43.289Z,1016.68
2018-06-20T09:07:43.252Z,1016.66
2018-06-20T09:08:43.926Z,1016.64
2018-06-20T09:09:43.646Z,1016.68
2018-06-20T09:10:43.374Z,1016.69
2018-06-20T09:11:43.358Z,1016.76
2018-06-20T09:12:43.346Z,1016.74
2018-06-20T09:13:43.390Z,1016.81
2018-06-20T09:14:43.394Z,1016.76
2018-06-20T09:15:43.471Z,1016.79
2018-06-20T09:16:43.423Z,1016.74
2018-06-20T09:17:43.454Z,1016.75
2018-06-20T09:18:43.458Z,1016.70
2018-06-20T09:19:43.505Z,1016.74
2018-06-20T09:20:43.552Z,1016.72
2018-06-20T09:21:43.514Z,1016.74
2018-06-20T09:22:43.546Z,1016.72
2018-06-20T09:23:43.564Z,1016.70
2018-06-20T09:24:43.729Z,1016.70
2018-06-20T09:25:43.819Z,1016.68
2018-06-20T09:26:43.734Z,1016.66
2018-06-20T09:27:43.629Z,1016.72
2018-06-20T09:28:43.655Z,1016.73
2018-06-20T09:29:43.692Z,1016.69
2018-06-20T09:30:44.690Z,1016.68
2018-06-20T09:31:43.712Z,1016.70
2018-06-20T09:32:43.752Z,1016.66
2018-06-20T09:33:43.744Z,1016.59
2018-06-20T09:34:43.801Z,1016.64
2018-06-20T09:35:43.804Z,1016.68
2018-06-20T09:36:43.823Z,1016.64
2018-06-20T09:37:43.834Z,1016.60
2018-06-20T09:38:43.970Z,1016.57
2018-06-20T09:39:43.947Z,1016.63
2018-06-20T09:40:43.897Z,1016.55
2018-06-20T09:41:43.943Z,1016.57
2018-06-20T09:42:43.919Z,1016.59
2018-06-20T09:43:43.940Z,1016.54
2018-06-20T09:44:44.025Z,1016.50
2018-06-20T09:45:44.707Z,1016.58
2018-06-20T09:46:44.130Z,1016.50
2018-06-20T09:47:44.035Z,1016.48
2018-06-20T09:48:44.037Z,1016.49
2018-06-20T09:49:44.057Z,1016.44
2018-06-20T09:50:44.089Z,1016.48
2018-06-20T09:51:44.096Z,1016.50
2018-06-20T09:53:44.137Z,1016.52
2018-06-20T09:54:44.387Z,1016.51
2018-06-20T09:55:44.170Z,1016.53
2018-06-20T09:57:44.217Z,1016.45
2018-06-20T09:58:44.233Z,1016.45
2018-06-20T09:59:44.254Z,1016.43
2018-06-20T10:00:44.292Z,1016.47
2018-06-20T10:01:45.200Z,1016.41
2018-06-20T10:02:44.320Z,1016.39
2018-06-20T10:03:44.340Z,1016.40
2018-06-20T10:04:44.360Z,1016.46
2018-06-20T10:05:44.376Z,1016.44
2018-06-20T10:06:44.399Z,1016.39
2018-06-20T10:07:47.245Z,1016.40
2018-06-20T10:08:44.439Z,1016.41
2018-06-20T10:09:44.493Z,1016.42
2018-06-20T10:10:44.472Z,1016.35
2018-06-20T10:11:44.509Z,1016.37
2018-06-20T10:12:44.506Z,1016.40
2018-06-20T10:13:44.535Z,1016.39
2018-06-20T10:14:44.552Z,1016.37
2018-06-20T10:15:44.569Z,1016.38
2018-06-20T10:16:44.591Z,1016.36
2018-06-20T10:17:44.606Z,1016.35
2018-06-20T10:18:44.701Z,1016.42
2018-06-20T10:19:44.648Z,1016.41
2018-06-20T10:20:44.686Z,1016.37
2018-06-20T10:21:44.684Z,1016.33
2018-06-20T10:22:44.705Z,1016.34
2018-06-20T10:23:44.724Z,1016.30
2018-06-20T10:24:44.756Z,1016.30
2018-06-20T10:25:44.840Z,1016.29
2018-06-20T10:26:44.787Z,1016.28
2018-06-20T10:27:44.806Z,1016.36
2018-06-20T10:28:44.829Z,1016.30
2018-06-20T10:29:44.840Z,1016.35
2018-06-20T10:30:44.879Z,1016.32
2018-06-20T10:31:44.884Z,1016.30
2018-06-20T10:32:44.917Z,1016.29
2018-06-20T10:33:44.924Z,1016.30
2018-06-20T10:34:44.953Z,1016.27
2018-06-20T10:35:45.008Z,1016.29
2018-06-20T10:36:44.985Z,1016.18
2018-06-20T10:37:45.008Z,1016.18
2018-06-20T10:38:45.027Z,1016.19
2018-06-20T10:39:45.062Z,1016.13
2018-06-20T10:40:45.068Z,1016.12
2018-06-20T10:41:45.091Z,1016.13
2018-06-20T10:42:45.132Z,1016.11
2018-06-20T10:43:45.331Z,1016.15
2018-06-20T10:44:45.152Z,1016.13
2018-06-20T10:45:45.172Z,1016.10
2018-06-20T10:46:45.192Z,1016.06
2018-06-20T10:47:45.216Z,1016.06
2018-06-20T10:48:45.232Z,1016.09
2018-06-20T10:49:45.255Z,1016.05
2018-06-20T10:50:45.275Z,1016.04
2018-06-20T10:51:45.363Z,1015.97
2018-06-20T10:52:45.496Z,1015.94
2018-06-20T10:53:45.335Z,1015.92
2018-06-20T10:54:45.365Z,1015.96
2018-06-20T10:55:45.380Z,1016.00
2018-06-20T10:56:45.423Z,1015.97
2018-06-20T10:57:45.423Z,1016.03
2018-06-20T10:58:45.447Z,1015.97
2018-06-20T10:59:45.759Z,1015.96
2018-06-20T11:00:45.725Z,1015.94
2018-06-20T11:01:46.061Z,1015.92
2018-06-20T11:02:45.525Z,1015.88
2018-06-20T11:03:45.556Z,1015.95
2018-06-20T11:04:45.608Z,1015.91
2018-06-20T11:05:45.597Z,1015.85
2018-06-20T11:06:45.608Z,1015.89
2018-06-20T11:07:45.635Z,1015.90
2018-06-20T11:08:45.655Z,1015.88
2018-06-20T11:09:45.693Z,1015.90
2018-06-20T11:10:45.694Z,1015.84
2018-06-20T11:11:45.747Z,1015.86
2018-06-20T11:12:45.770Z,1015.80
2018-06-20T11:13:45.779Z,1015.75
2018-06-20T11:14:45.783Z,1015.77
2018-06-20T11:15:45.800Z,1015.76
2018-06-20T11:16:45.925Z,1015.69
2018-06-20T11:17:45.893Z,1015.72
2018-06-20T11:18:45.863Z,1015.74
2018-06-20T11:19:45.893Z,1015.78
2018-06-20T11:20:45.911Z,1015.68
2018-06-20T11:21:45.931Z,1015.75
2018-06-20T11:22:45.981Z,1015.74
2018-06-20T11:23:45.968Z,1015.74
2018-06-20T11:24:46.007Z,1015.67
2018-06-20T11:25:46.009Z,1015.68
2018-06-20T11:26:46.333Z,1015.60
2018-06-20T11:27:46.059Z,1015.55
2018-06-20T11:28:46.073Z,1015.53
2018-06-20T11:29:46.125Z,1015.59
2018-06-20T11:30:46.211Z,1015.54
2018-06-20T11:31:46.136Z,1015.55
2018-06-20T11:32:46.161Z,1015.51
2018-06-20T11:33:46.199Z,1015.56
2018-06-20T11:34:46.749Z,1015.55
2018-06-20T11:35:46.227Z,1015.53
2018-06-20T11:36:46.246Z,1015.53
2018-06-20T11:37:46.264Z,1015.42
2018-06-20T11:38:46.292Z,1015.37
2018-06-20T11:39:46.306Z,1015.42
2018-06-20T11:40:46.334Z,1015.45
2018-06-20T11:41:46.349Z,1015.47
2018-06-20T11:42:46.371Z,1015.38
2018-06-20T11:43:46.411Z,1015.48
2018-06-20T11:44:46.493Z,1015.44
2018-06-20T11:45:46.437Z,1015.29
2018-06-20T11:46:46.497Z,1015.35
2018-06-20T11:47:46.467Z,1015.33
2018-06-20T11:48:46.725Z,1015.28
2018-06-20T11:50:46.532Z,1015.19
2018-06-20T11:51:46.568Z,1015.17
2018-06-20T11:52:46.573Z,1015.20
2018-06-20T11:53:46.596Z,1015.16
2018-06-20T11:54:46.673Z,1015.21
2018-06-20T11:55:46.640Z,1015.11
2018-06-20T11:56:46.656Z,1015.07
2018-06-20T11:57:46.722Z,1015.06
2018-06-20T11:58:46.754Z,1015.11
2018-06-20T11:59:46.721Z,1015.04
2018-06-20T12:01:46.823Z,1015.07
2018-06-20T12:02:46.787Z,1015.07
2018-06-20T12:03:46.847Z,1015.01
2018-06-20T12:04:46.841Z,1015.05
2018-06-20T12:05:46.845Z,1015.07
2018-06-20T12:06:46.867Z,1015.06
2018-06-20T12:07:46.891Z,1015.00
2018-06-20T12:08:46.911Z,1015.04
2018-06-20T12:09:46.934Z,1015.02
2018-06-20T12:10:46.951Z,1015.01
2018-06-20T12:11:46.972Z,1015.05
2018-06-20T12:12:46.993Z,1015.06
2018-06-20T12:13:47.014Z,1015.01
2018-06-20T12:14:47.034Z,1015.07
2018-06-20T12:15:47.358Z,1015.13
2018-06-20T12:16:47.078Z,1015.08